sensor_id;sensor_type;location;lat;lon;timestamp;pressure;altitude;pressure_sealevel;temperature;humidity
10539;BME280;5317;49.048;8.468;2022-09-17T00:01:27;112049.66;;;-142.21;81.88
10539;BME280;5317;49.048;8.468;2022-09-17T00:03:59;112049.66;;;-142.21;82.26
10539;BME280;5317;49.048;8.468;2022-09-17T00:06:31;112049.66;;;-142.21;83.63
10539;BME280;5317;49.048;8.468;2022-09-17T00:08:59;112049.66;;;-142.21;82.77
10539;BME280;5317;49.048;8.468;2022-09-17T00:11:30;112049.66;;;-142.21;81.69
10539;BME280;5317;49.048;8.468;2022-09-17T00:14:03;112049.66;;;-142.21;81.66
10539;BME280;5317;49.048;8.468;2022-09-17T00:16:37;112049.66;;;-142.21;81.44
10539;BME280;5317;49.048;8.468;2022-09-17T00:19:08;112049.66;;;-142.21;81.16
10539;BME280;5317;49.048;8.468;2022-09-17T00:21:36;112049.66;;;-142.21;82.19
10539;BME280;5317;49.048;8.468;2022-09-17T00:24:05;112049.66;;;-142.21;82.02
10539;BME280;5317;49.048;8.468;2022-09-17T00:26:34;112049.66;;;-142.21;82.12
10539;BME280;5317;49.048;8.468;2022-09-17T00:29:03;112049.66;;;-142.21;82.22
10539;BME280;5317;49.048;8.468;2022-09-17T00:31:34;112049.66;;;-142.21;82.57
10539;BME280;5317;49.048;8.468;2022-09-17T00:34:03;112049.66;;;-142.21;82.47
10539;BME280;5317;49.048;8.468;2022-09-17T00:36:34;112049.66;;;-142.21;82.26
10539;BME280;5317;49.048;8.468;2022-09-17T00:39:04;112049.66;;;-142.21;82.68
10539;BME280;5317;49.048;8.468;2022-09-17T00:41:35;112049.66;;;-142.21;82.73
10539;BME280;5317;49.048;8.468;2022-09-17T00:44:43;112049.66;;;-142.21;82.58
10539;BME280;5317;49.048;8.468;2022-09-17T00:47:17;112049.66;;;-142.21;82.64
10539;BME280;5317;49.048;8.468;2022-09-17T00:49:47;112049.66;;;-142.21;82.33
10539;BME280;5317;49.048;8.468;2022-09-17T00:52:23;112049.66;;;-142.21;82.87
10539;BME280;5317;49.048;8.468;2022-09-17T00:54:56;112049.66;;;-142.21;82.90
10539;BME280;5317;49.048;8.468;2022-09-17T00:57:25;112049.66;;;-142.21;83.58
10539;BME280;5317;49.048;8.468;2022-09-17T00:59:54;112049.66;;;-142.21;83.13
10539;BME280;5317;49.048;8.468;2022-09-17T01:02:22;112049.66;;;-142.21;83.97
10539;BME280;5317;49.048;8.468;2022-09-17T01:04:49;112049.66;;;-142.21;84.04
10539;BME280;5317;49.048;8.468;2022-09-17T01:10:35;112049.66;;;-142.21;83.63
10539;BME280;5317;49.048;8.468;2022-09-17T01:13:23;112049.66;;;-142.21;83.73
10539;BME280;5317;49.048;8.468;2022-09-17T01:16:03;112049.66;;;-142.21;83.97
10539;BME280;5317;49.048;8.468;2022-09-17T01:18:47;112049.66;;;-142.21;84.52
10539;BME280;5317;49.048;8.468;2022-09-17T01:21:41;112049.66;;;-142.21;84.70
10539;BME280;5317;49.048;8.468;2022-09-17T01:24:53;112049.66;;;-142.21;84.95
10539;BME280;5317;49.048;8.468;2022-09-17T01:31:21;112049.66;;;-142.21;85.42
10539;BME280;5317;49.048;8.468;2022-09-17T01:34:04;112049.66;;;-142.21;85.27
10539;BME280;5317;49.048;8.468;2022-09-17T01:36:50;112049.66;;;-142.21;85.23
10539;BME280;5317;49.048;8.468;2022-09-17T01:39:33;112049.66;;;-142.21;84.25
10539;BME280;5317;49.048;8.468;2022-09-17T01:42:15;112049.66;;;-142.21;85.23
10539;BME280;5317;49.048;8.468;2022-09-17T01:44:53;112049.66;;;-142.21;85.23
10539;BME280;5317;49.048;8.468;2022-09-17T01:47:28;112049.66;;;-142.21;85.45
10539;BME280;5317;49.048;8.468;2022-09-17T01:50:04;112049.66;;;-142.21;85.37
10539;BME280;5317;49.048;8.468;2022-09-17T01:52:38;112049.66;;;-142.21;85.57
10539;BME280;5317;49.048;8.468;2022-09-17T01:55:11;112049.66;;;-142.21;85.80
10539;BME280;5317;49.048;8.468;2022-09-17T01:57:46;112049.66;;;-142.21;85.63
10539;BME280;5317;49.048;8.468;2022-09-17T02:00:15;112049.66;;;-142.21;86.05
10539;BME280;5317;49.048;8.468;2022-09-17T02:02:49;112049.66;;;-142.21;85.78
10539;BME280;5317;49.048;8.468;2022-09-17T02:05:23;112049.66;;;-142.21;85.20
10539;BME280;5317;49.048;8.468;2022-09-17T02:07:57;112049.66;;;-142.21;85.33
10539;BME280;5317;49.048;8.468;2022-09-17T02:10:31;112049.66;;;-142.21;85.33
10539;BME280;5317;49.048;8.468;2022-09-17T02:13:07;112049.66;;;-142.21;85.63
10539;BME280;5317;49.048;8.468;2022-09-17T02:15:43;112049.66;;;-142.21;85.50
10539;BME280;5317;49.048;8.468;2022-09-17T02:18:23;112049.66;;;-142.21;85.07
10539;BME280;5317;49.048;8.468;2022-09-17T02:21:00;112049.66;;;-142.21;85.63
10539;BME280;5317;49.048;8.468;2022-09-17T02:23:35;112049.66;;;-142.21;85.21
10539;BME280;5317;49.048;8.468;2022-09-17T02:26:12;112049.66;;;-142.21;85.07
10539;BME280;5317;49.048;8.468;2022-09-17T02:28:46;112049.66;;;-142.21;85.29
10539;BME280;5317;49.048;8.468;2022-09-17T02:31:14;112049.66;;;-142.21;85.76
10539;BME280;5317;49.048;8.468;2022-09-17T02:33:48;112049.66;;;-142.21;85.61
10539;BME280;5317;49.048;8.468;2022-09-17T02:36:18;112049.66;;;-142.21;85.26
10539;BME280;5317;49.048;8.468;2022-09-17T02:38:45;112049.66;;;-142.21;85.60
10539;BME280;5317;49.048;8.468;2022-09-17T02:41:16;112049.66;;;-142.21;85.89
10539;BME280;5317;49.048;8.468;2022-09-17T02:43:55;112049.66;;;-142.21;86.19
10539;BME280;5317;49.048;8.468;2022-09-17T02:46:47;112049.66;;;-142.21;86.30
10539;BME280;5317;49.048;8.468;2022-09-17T02:49:42;112049.66;;;-142.21;86.12
10539;BME280;5317;49.048;8.468;2022-09-17T02:52:33;112049.66;;;-142.21;86.30
10539;BME280;5317;49.048;8.468;2022-09-17T02:55:16;112049.66;;;-142.21;86.09
10539;BME280;5317;49.048;8.468;2022-09-17T02:57:51;112049.66;;;-142.21;86.12
10539;BME280;5317;49.048;8.468;2022-09-17T03:00:21;112049.66;;;-142.21;86.41
10539;BME280;5317;49.048;8.468;2022-09-17T03:02:55;112049.66;;;-142.21;85.98
10539;BME280;5317;49.048;8.468;2022-09-17T03:05:27;112049.66;;;-142.21;86.97
10539;BME280;5317;49.048;8.468;2022-09-17T03:07:58;112049.66;;;-142.21;88.35
10539;BME280;5317;49.048;8.468;2022-09-17T03:10:26;112049.66;;;-142.21;89.80
10539;BME280;5317;49.048;8.468;2022-09-17T03:12:58;112049.66;;;-142.21;90.63
10539;BME280;5317;49.048;8.468;2022-09-17T03:15:25;112049.66;;;-142.21;91.71
10539;BME280;5317;49.048;8.468;2022-09-17T03:17:53;112049.66;;;-142.21;92.03
10539;BME280;5317;49.048;8.468;2022-09-17T03:20:20;112049.66;;;-142.21;93.44
10539;BME280;5317;49.048;8.468;2022-09-17T03:22:51;112049.66;;;-142.21;94.18
10539;BME280;5317;49.048;8.468;2022-09-17T03:25:18;112049.66;;;-142.21;94.15
10539;BME280;5317;49.048;8.468;2022-09-17T03:27:45;112049.66;;;-142.21;94.61
10539;BME280;5317;49.048;8.468;2022-09-17T03:30:13;112049.66;;;-142.21;95.27
10539;BME280;5317;49.048;8.468;2022-09-17T03:32:40;112049.66;;;-142.21;95.16
10539;BME280;5317;49.048;8.468;2022-09-17T03:35:07;112049.66;;;-142.21;95.26
10539;BME280;5317;49.048;8.468;2022-09-17T03:37:37;112049.66;;;-142.21;95.93
10539;BME280;5317;49.048;8.468;2022-09-17T03:40:07;112049.66;;;-142.21;96.34
10539;BME280;5317;49.048;8.468;2022-09-17T03:42:34;112049.66;;;-142.21;95.90
10539;BME280;5317;49.048;8.468;2022-09-17T03:45:01;112049.66;;;-142.21;94.74
10539;BME280;5317;49.048;8.468;2022-09-17T03:47:28;112049.66;;;-142.21;94.80
10539;BME280;5317;49.048;8.468;2022-09-17T03:49:56;112049.66;;;-142.21;94.89
10539;BME280;5317;49.048;8.468;2022-09-17T03:52:23;112049.66;;;-142.21;95.22
10539;BME280;5317;49.048;8.468;2022-09-17T03:54:50;112049.66;;;-142.21;95.87
10539;BME280;5317;49.048;8.468;2022-09-17T03:57:19;112049.66;;;-142.21;96.03
10539;BME280;5317;49.048;8.468;2022-09-17T03:59:47;112049.66;;;-142.21;95.88
10539;BME280;5317;49.048;8.468;2022-09-17T04:02:15;112049.66;;;-142.21;94.15
10539;BME280;5317;49.048;8.468;2022-09-17T04:04:42;112049.66;;;-142.21;92.74
10539;BME280;5317;49.048;8.468;2022-09-17T04:07:09;112049.66;;;-142.21;92.90
10539;BME280;5317;49.048;8.468;2022-09-17T04:09:36;112049.66;;;-142.21;92.83
10539;BME280;5317;49.048;8.468;2022-09-17T04:12:04;112049.66;;;-142.21;92.20
10539;BME280;5317;49.048;8.468;2022-09-17T04:14:33;112049.66;;;-142.21;91.16
10539;BME280;5317;49.048;8.468;2022-09-17T04:17:00;112049.66;;;-142.21;91.10
10539;BME280;5317;49.048;8.468;2022-09-17T04:19:27;112049.66;;;-142.21;90.88
10539;BME280;5317;49.048;8.468;2022-09-17T04:21:54;112049.66;;;-142.21;91.41
10539;BME280;5317;49.048;8.468;2022-09-17T04:24:21;112049.66;;;-142.21;91.62
10539;BME280;5317;49.048;8.468;2022-09-17T04:26:49;112049.66;;;-142.21;91.64
10539;BME280;5317;49.048;8.468;2022-09-17T04:29:16;112049.66;;;-142.21;91.74
10539;BME280;5317;49.048;8.468;2022-09-17T04:31:45;112049.66;;;-142.21;91.57
10539;BME280;5317;49.048;8.468;2022-09-17T04:34:12;112049.66;;;-142.21;90.98
10539;BME280;5317;49.048;8.468;2022-09-17T04:36:39;112049.66;;;-142.21;91.17
10539;BME280;5317;49.048;8.468;2022-09-17T04:39:07;112049.66;;;-142.21;91.34
10539;BME280;5317;49.048;8.468;2022-09-17T04:41:35;112049.66;;;-142.21;91.31
10539;BME280;5317;49.048;8.468;2022-09-17T04:44:02;112049.66;;;-142.21;91.46
10539;BME280;5317;49.048;8.468;2022-09-17T04:46:29;112049.66;;;-142.21;91.73
10539;BME280;5317;49.048;8.468;2022-09-17T04:48:58;112049.66;;;-142.21;91.64
10539;BME280;5317;49.048;8.468;2022-09-17T04:51:25;112049.66;;;-142.21;91.32
10539;BME280;5317;49.048;8.468;2022-09-17T04:53:54;112049.66;;;-142.21;91.04
10539;BME280;5317;49.048;8.468;2022-09-17T04:56:22;112049.66;;;-142.21;91.81
10539;BME280;5317;49.048;8.468;2022-09-17T04:58:49;112049.66;;;-142.21;92.10
10539;BME280;5317;49.048;8.468;2022-09-17T05:01:16;112049.66;;;-142.21;91.89
10539;BME280;5317;49.048;8.468;2022-09-17T05:03:43;112049.66;;;-142.21;92.20
10539;BME280;5317;49.048;8.468;2022-09-17T05:06:12;112049.66;;;-142.21;91.98
10539;BME280;5317;49.048;8.468;2022-09-17T05:08:39;112049.66;;;-142.21;92.32
10539;BME280;5317;49.048;8.468;2022-09-17T05:11:07;112049.66;;;-142.21;92.61
10539;BME280;5317;49.048;8.468;2022-09-17T05:13:34;112049.66;;;-142.21;93.19
10539;BME280;5317;49.048;8.468;2022-09-17T05:16:02;112049.66;;;-142.21;93.14
10539;BME280;5317;49.048;8.468;2022-09-17T05:18:29;112049.66;;;-142.21;94.32
10539;BME280;5317;49.048;8.468;2022-09-17T05:20:56;112049.66;;;-142.21;93.33
10539;BME280;5317;49.048;8.468;2022-09-17T05:23:25;112049.66;;;-142.21;92.51
10539;BME280;5317;49.048;8.468;2022-09-17T05:25:52;112049.66;;;-142.21;92.49
10539;BME280;5317;49.048;8.468;2022-09-17T05:28:23;112049.66;;;-142.21;93.10
10539;BME280;5317;49.048;8.468;2022-09-17T05:30:50;112049.66;;;-142.21;93.48
10539;BME280;5317;49.048;8.468;2022-09-17T05:33:17;112049.66;;;-142.21;93.14
10539;BME280;5317;49.048;8.468;2022-09-17T05:35:45;112049.66;;;-142.21;92.47
10539;BME280;5317;49.048;8.468;2022-09-17T05:38:12;112049.66;;;-142.21;92.27
10539;BME280;5317;49.048;8.468;2022-09-17T05:40:40;112049.66;;;-142.21;92.86
10539;BME280;5317;49.048;8.468;2022-09-17T05:43:09;112049.66;;;-142.21;93.25
10539;BME280;5317;49.048;8.468;2022-09-17T05:45:37;112049.66;;;-142.21;94.14
10539;BME280;5317;49.048;8.468;2022-09-17T05:48:08;112049.66;;;-142.21;94.29
10539;BME280;5317;49.048;8.468;2022-09-17T05:50:37;112049.66;;;-142.21;95.43
10539;BME280;5317;49.048;8.468;2022-09-17T05:53:07;112049.66;;;-142.21;96.33
10539;BME280;5317;49.048;8.468;2022-09-17T05:55:36;112049.66;;;-142.21;97.00
10539;BME280;5317;49.048;8.468;2022-09-17T05:58:14;112049.66;;;-142.21;98.69
10539;BME280;5317;49.048;8.468;2022-09-17T06:00:42;112049.66;;;-142.21;99.22
10539;BME280;5317;49.048;8.468;2022-09-17T06:03:14;112049.66;;;-142.21;99.68
10539;BME280;5317;49.048;8.468;2022-09-17T06:05:43;112049.66;;;-142.21;100.00
10539;BME280;5317;49.048;8.468;2022-09-17T06:08:18;112049.66;;;-142.21;100.00
10539;BME280;5317;49.048;8.468;2022-09-17T06:10:45;112049.66;;;-142.21;100.00
10539;BME280;5317;49.048;8.468;2022-09-17T06:13:14;112049.66;;;-142.21;100.00
10539;BME280;5317;49.048;8.468;2022-09-17T06:15:41;112049.66;;;-142.21;100.00
10539;BME280;5317;49.048;8.468;2022-09-17T06:18:08;112049.66;;;-142.21;100.00
10539;BME280;5317;49.048;8.468;2022-09-17T06:20:35;112049.66;;;-142.21;100.00
10539;BME280;5317;49.048;8.468;2022-09-17T06:23:03;112049.66;;;-142.21;100.00
10539;BME280;5317;49.048;8.468;2022-09-17T06:25:30;112049.66;;;-142.21;100.00
10539;BME280;5317;49.048;8.468;2022-09-17T06:27:57;112049.66;;;-142.21;100.00
10539;BME280;5317;49.048;8.468;2022-09-17T06:30:26;112049.66;;;-142.21;100.00
10539;BME280;5317;49.048;8.468;2022-09-17T06:32:53;112049.66;;;-142.21;100.00
10539;BME280;5317;49.048;8.468;2022-09-17T06:35:20;112049.66;;;-142.21;100.00
10539;BME280;5317;49.048;8.468;2022-09-17T06:37:47;112049.66;;;-142.21;100.00
10539;BME280;5317;49.048;8.468;2022-09-17T06:40:15;112049.66;;;-142.21;100.00
10539;BME280;5317;49.048;8.468;2022-09-17T06:42:42;112049.66;;;-142.21;100.00
10539;BME280;5317;49.048;8.468;2022-09-17T06:45:10;112049.66;;;-142.21;100.00
10539;BME280;5317;49.048;8.468;2022-09-17T06:47:38;112049.66;;;-142.21;100.00
10539;BME280;5317;49.048;8.468;2022-09-17T06:50:06;112049.66;;;-142.21;100.00
10539;BME280;5317;49.048;8.468;2022-09-17T06:52:33;112049.66;;;-142.21;100.00
10539;BME280;5317;49.048;8.468;2022-09-17T06:55:00;112049.66;;;-142.21;100.00
10539;BME280;5317;49.048;8.468;2022-09-17T06:57:27;112049.66;;;-142.21;100.00
10539;BME280;5317;49.048;8.468;2022-09-17T06:59:54;112049.66;;;-142.21;100.00
10539;BME280;5317;49.048;8.468;2022-09-17T07:02:25;112049.66;;;-142.21;100.00
10539;BME280;5317;49.048;8.468;2022-09-17T07:04:53;112049.66;;;-142.21;100.00
10539;BME280;5317;49.048;8.468;2022-09-17T07:07:23;112049.66;;;-142.21;100.00
10539;BME280;5317;49.048;8.468;2022-09-17T07:09:50;112049.66;;;-142.21;100.00
10539;BME280;5317;49.048;8.468;2022-09-17T07:12:17;112049.66;;;-142.21;100.00
10539;BME280;5317;49.048;8.468;2022-09-17T07:14:45;112049.66;;;-142.21;100.00
10539;BME280;5317;49.048;8.468;2022-09-17T07:17:12;112049.66;;;-142.21;100.00
10539;BME280;5317;49.048;8.468;2022-09-17T07:19:40;112049.66;;;-142.21;100.00
10539;BME280;5317;49.048;8.468;2022-09-17T07:22:09;112049.66;;;-142.21;100.00
10539;BME280;5317;49.048;8.468;2022-09-17T07:24:36;112049.66;;;-142.21;100.00
10539;BME280;5317;49.048;8.468;2022-09-17T07:27:05;112049.66;;;-142.21;100.00
10539;BME280;5317;49.048;8.468;2022-09-17T07:29:33;112049.66;;;-142.21;100.00
10539;BME280;5317;49.048;8.468;2022-09-17T07:32:02;112049.66;;;-142.21;100.00
10539;BME280;5317;49.048;8.468;2022-09-17T07:34:29;112049.66;;;-142.21;100.00
10539;BME280;5317;49.048;8.468;2022-09-17T07:36:57;112049.66;;;-142.21;100.00
10539;BME280;5317;49.048;8.468;2022-09-17T07:39:28;112049.66;;;-142.21;100.00
10539;BME280;5317;49.048;8.468;2022-09-17T07:41:55;112049.66;;;-142.21;100.00
10539;BME280;5317;49.048;8.468;2022-09-17T07:44:22;112049.66;;;-142.21;100.00
10539;BME280;5317;49.048;8.468;2022-09-17T07:46:49;112049.66;;;-142.21;100.00
10539;BME280;5317;49.048;8.468;2022-09-17T07:49:17;112049.66;;;-142.21;100.00
10539;BME280;5317;49.048;8.468;2022-09-17T07:51:44;112049.66;;;-142.21;97.69
10539;BME280;5317;49.048;8.468;2022-09-17T07:54:12;112049.66;;;-142.21;99.37
10539;BME280;5317;49.048;8.468;2022-09-17T07:56:40;112049.66;;;-142.21;96.91
10539;BME280;5317;49.048;8.468;2022-09-17T07:59:08;112049.66;;;-142.21;96.64
10539;BME280;5317;49.048;8.468;2022-09-17T08:01:36;112049.66;;;-142.21;96.75
10539;BME280;5317;49.048;8.468;2022-09-17T08:04:04;112049.66;;;-142.21;95.36
10539;BME280;5317;49.048;8.468;2022-09-17T08:06:37;112049.66;;;-142.21;96.71
10539;BME280;5317;49.048;8.468;2022-09-17T08:09:06;112049.66;;;-142.21;96.83
10539;BME280;5317;49.048;8.468;2022-09-17T08:11:35;112049.66;;;-142.21;96.09
10539;BME280;5317;49.048;8.468;2022-09-17T08:14:04;112049.66;;;-142.21;96.29
10539;BME280;5317;49.048;8.468;2022-09-17T08:16:31;112049.66;;;-142.21;96.13
10539;BME280;5317;49.048;8.468;2022-09-17T08:18:58;112049.66;;;-142.21;97.76
10539;BME280;5317;49.048;8.468;2022-09-17T08:21:26;112049.66;;;-142.21;93.89
10539;BME280;5317;49.048;8.468;2022-09-17T08:23:53;112049.66;;;-142.21;92.27
10539;BME280;5317;49.048;8.468;2022-09-17T08:26:22;112049.66;;;-142.21;91.55
10539;BME280;5317;49.048;8.468;2022-09-17T08:28:52;112049.66;;;-142.21;93.91
10539;BME280;5317;49.048;8.468;2022-09-17T08:31:25;112049.66;;;-142.21;91.63
10539;BME280;5317;49.048;8.468;2022-09-17T08:33:53;112049.66;;;-142.21;92.16
10539;BME280;5317;49.048;8.468;2022-09-17T08:36:20;112049.66;;;-142.21;88.01
10539;BME280;5317;49.048;8.468;2022-09-17T08:38:52;112049.66;;;-142.21;84.59
10539;BME280;5317;49.048;8.468;2022-09-17T08:41:27;112049.66;;;-142.21;84.52
10539;BME280;5317;49.048;8.468;2022-09-17T08:44:16;112049.66;;;-142.21;82.64
10539;BME280;5317;49.048;8.468;2022-09-17T08:46:51;112049.66;;;-142.21;83.32
10539;BME280;5317;49.048;8.468;2022-09-17T08:49:33;112049.66;;;-142.21;85.61
10539;BME280;5317;49.048;8.468;2022-09-17T08:52:34;112049.66;;;-142.21;83.38
10539;BME280;5317;49.048;8.468;2022-09-17T08:55:22;112049.66;;;-142.21;80.38
10539;BME280;5317;49.048;8.468;2022-09-17T09:00:54;112049.66;;;-142.21;80.40
10539;BME280;5317;49.048;8.468;2022-09-17T09:03:43;112049.66;;;-142.21;79.60
10539;BME280;5317;49.048;8.468;2022-09-17T09:06:20;112049.66;;;-142.21;81.22
10539;BME280;5317;49.048;8.468;2022-09-17T09:08:55;112049.66;;;-142.21;79.94
10539;BME280;5317;49.048;8.468;2022-09-17T09:11:28;112049.66;;;-142.21;77.66
10539;BME280;5317;49.048;8.468;2022-09-17T09:14:04;112049.66;;;-142.21;77.39
10539;BME280;5317;49.048;8.468;2022-09-17T09:16:38;112049.66;;;-142.21;75.77
10539;BME280;5317;49.048;8.468;2022-09-17T09:19:20;112049.66;;;-142.21;76.29
10539;BME280;5317;49.048;8.468;2022-09-17T09:22:01;112049.66;;;-142.21;78.30
10539;BME280;5317;49.048;8.468;2022-09-17T09:24:39;112049.66;;;-142.21;75.64
10539;BME280;5317;49.048;8.468;2022-09-17T09:27:16;112049.66;;;-142.21;71.74
10539;BME280;5317;49.048;8.468;2022-09-17T09:30:00;112049.66;;;-142.21;71.01
10539;BME280;5317;49.048;8.468;2022-09-17T09:32:53;112049.66;;;-142.21;71.41
10539;BME280;5317;49.048;8.468;2022-09-17T09:35:27;112049.66;;;-142.21;71.01
10539;BME280;5317;49.048;8.468;2022-09-17T09:38:03;112049.66;;;-142.21;71.22
10539;BME280;5317;49.048;8.468;2022-09-17T09:40:40;112049.66;;;-142.21;74.35
10539;BME280;5317;49.048;8.468;2022-09-17T09:43:18;112049.66;;;-142.21;70.17
10539;BME280;5317;49.048;8.468;2022-09-17T09:46:05;112049.66;;;-142.21;71.29
10539;BME280;5317;49.048;8.468;2022-09-17T09:48:48;112049.66;;;-142.21;70.19
10539;BME280;5317;49.048;8.468;2022-09-17T09:51:34;112049.66;;;-142.21;72.52
10539;BME280;5317;49.048;8.468;2022-09-17T09:54:20;112049.66;;;-142.21;73.69
10539;BME280;5317;49.048;8.468;2022-09-17T09:56:56;112049.66;;;-142.21;68.45
10539;BME280;5317;49.048;8.468;2022-09-17T09:59:24;112049.66;;;-142.21;68.06
10539;BME280;5317;49.048;8.468;2022-09-17T10:01:52;112049.66;;;-142.21;67.84
10539;BME280;5317;49.048;8.468;2022-09-17T10:04:22;112049.66;;;-142.21;66.79
10539;BME280;5317;49.048;8.468;2022-09-17T10:06:53;112049.66;;;-142.21;65.07
10539;BME280;5317;49.048;8.468;2022-09-17T10:09:21;112049.66;;;-142.21;66.11
10539;BME280;5317;49.048;8.468;2022-09-17T10:12:14;112049.66;;;-142.21;67.12
10539;BME280;5317;49.048;8.468;2022-09-17T10:14:44;112049.66;;;-142.21;65.45
10539;BME280;5317;49.048;8.468;2022-09-17T10:17:17;112049.66;;;-142.21;65.00
10539;BME280;5317;49.048;8.468;2022-09-17T10:20:08;112049.66;;;-142.21;67.80
10539;BME280;5317;49.048;8.468;2022-09-17T10:22:41;112049.66;;;-142.21;70.07
10539;BME280;5317;49.048;8.468;2022-09-17T10:25:29;112049.66;;;-142.21;67.15
10539;BME280;5317;49.048;8.468;2022-09-17T10:28:00;112049.66;;;-142.21;61.78
10539;BME280;5317;49.048;8.468;2022-09-17T10:30:29;112049.66;;;-142.21;61.00
10539;BME280;5317;49.048;8.468;2022-09-17T10:33:28;112049.66;;;-142.21;57.57
10539;BME280;5317;49.048;8.468;2022-09-17T10:36:02;112049.66;;;-142.21;57.31
10539;BME280;5317;49.048;8.468;2022-09-17T10:38:38;112049.66;;;-142.21;59.02
10539;BME280;5317;49.048;8.468;2022-09-17T10:41:15;112049.66;;;-142.21;58.49
10539;BME280;5317;49.048;8.468;2022-09-17T10:43:44;112049.66;;;-142.21;59.41
10539;BME280;5317;49.048;8.468;2022-09-17T10:46:17;112049.66;;;-142.21;55.49
10539;BME280;5317;49.048;8.468;2022-09-17T10:48:57;112049.66;;;-142.21;55.35
10539;BME280;5317;49.048;8.468;2022-09-17T10:51:26;112049.66;;;-142.21;52.16
10539;BME280;5317;49.048;8.468;2022-09-17T10:54:07;112049.66;;;-142.21;52.20
10539;BME280;5317;49.048;8.468;2022-09-17T10:56:44;112049.66;;;-142.21;52.67
10539;BME280;5317;49.048;8.468;2022-09-17T10:59:59;112049.66;;;-142.21;62.75
10539;BME280;5317;49.048;8.468;2022-09-17T11:03:19;112049.66;;;-142.21;59.97
10539;BME280;5317;49.048;8.468;2022-09-17T11:06:17;112049.66;;;-142.21;67.03
10539;BME280;5317;49.048;8.468;2022-09-17T11:09:09;112049.66;;;-142.21;70.74
10539;BME280;5317;49.048;8.468;2022-09-17T11:11:52;112049.66;;;-142.21;66.15
10539;BME280;5317;49.048;8.468;2022-09-17T11:14:49;112049.66;;;-142.21;68.08
10539;BME280;5317;49.048;8.468;2022-09-17T11:17:44;112049.66;;;-142.21;68.34
10539;BME280;5317;49.048;8.468;2022-09-17T11:20:33;112049.66;;;-142.21;70.45
10539;BME280;5317;49.048;8.468;2022-09-17T11:23:22;112049.66;;;-142.21;66.08
10539;BME280;5317;49.048;8.468;2022-09-17T11:25:59;112049.66;;;-142.21;65.04
10539;BME280;5317;49.048;8.468;2022-09-17T11:28:48;112049.66;;;-142.21;64.97
10539;BME280;5317;49.048;8.468;2022-09-17T11:31:32;112049.66;;;-142.21;73.84
10539;BME280;5317;49.048;8.468;2022-09-17T11:34:25;112049.66;;;-142.21;77.33
10539;BME280;5317;49.048;8.468;2022-09-17T11:37:03;112049.66;;;-142.21;75.93
10539;BME280;5317;49.048;8.468;2022-09-17T11:39:39;112049.66;;;-142.21;73.60
10539;BME280;5317;49.048;8.468;2022-09-17T11:42:19;112049.66;;;-142.21;77.76
10539;BME280;5317;49.048;8.468;2022-09-17T11:44:53;112049.66;;;-142.21;79.66
10539;BME280;5317;49.048;8.468;2022-09-17T11:47:29;112049.66;;;-142.21;81.24
10539;BME280;5317;49.048;8.468;2022-09-17T11:50:06;112049.66;;;-142.21;86.92
10539;BME280;5317;49.048;8.468;2022-09-17T11:52:41;112049.66;;;-142.21;87.04
10539;BME280;5317;49.048;8.468;2022-09-17T11:55:20;112049.66;;;-142.21;89.01
10539;BME280;5317;49.048;8.468;2022-09-17T11:57:56;112049.66;;;-142.21;89.57
10539;BME280;5317;49.048;8.468;2022-09-17T12:00:29;112049.66;;;-142.21;89.61
10539;BME280;5317;49.048;8.468;2022-09-17T12:03:14;112049.66;;;-142.21;90.69
10539;BME280;5317;49.048;8.468;2022-09-17T12:05:49;112049.66;;;-142.21;89.35
10539;BME280;5317;49.048;8.468;2022-09-17T12:08:25;112049.66;;;-142.21;88.82
10539;BME280;5317;49.048;8.468;2022-09-17T12:11:03;112049.66;;;-142.21;87.41
10539;BME280;5317;49.048;8.468;2022-09-17T12:13:41;112049.66;;;-142.21;88.58
10539;BME280;5317;49.048;8.468;2022-09-17T12:16:15;112049.66;;;-142.21;88.89
10539;BME280;5317;49.048;8.468;2022-09-17T12:19:00;112049.66;;;-142.21;90.74
10539;BME280;5317;49.048;8.468;2022-09-17T12:21:36;112049.66;;;-142.21;89.45
10539;BME280;5317;49.048;8.468;2022-09-17T12:24:13;112049.66;;;-142.21;91.70
10539;BME280;5317;49.048;8.468;2022-09-17T12:27:11;112049.66;;;-142.21;94.57
10539;BME280;5317;49.048;8.468;2022-09-17T12:30:12;112049.66;;;-142.21;94.63
10539;BME280;5317;49.048;8.468;2022-09-17T12:33:12;112049.66;;;-142.21;92.59
10539;BME280;5317;49.048;8.468;2022-09-17T12:35:58;112049.66;;;-142.21;93.89
10539;BME280;5317;49.048;8.468;2022-09-17T12:39:06;112049.66;;;-142.21;94.10
10539;BME280;5317;49.048;8.468;2022-09-17T12:41:54;112049.66;;;-142.21;90.83
10539;BME280;5317;49.048;8.468;2022-09-17T12:44:59;112049.66;;;-142.21;88.46
10539;BME280;5317;49.048;8.468;2022-09-17T12:48:15;112049.66;;;-142.21;90.71
10539;BME280;5317;49.048;8.468;2022-09-17T12:51:01;112049.66;;;-142.21;91.68
10539;BME280;5317;49.048;8.468;2022-09-17T12:53:38;112049.66;;;-142.21;91.33
10539;BME280;5317;49.048;8.468;2022-09-17T12:56:39;112049.66;;;-142.21;88.77
10539;BME280;5317;49.048;8.468;2022-09-17T12:59:15;112049.66;;;-142.21;86.95
10539;BME280;5317;49.048;8.468;2022-09-17T13:01:51;112049.66;;;-142.21;86.98
10539;BME280;5317;49.048;8.468;2022-09-17T13:08:14;112049.66;;;-142.21;80.68
10539;BME280;5317;49.048;8.468;2022-09-17T13:11:21;112049.66;;;-142.21;79.59
10539;BME280;5317;49.048;8.468;2022-09-17T13:14:00;112049.66;;;-142.21;81.26
10539;BME280;5317;49.048;8.468;2022-09-17T13:16:54;112049.66;;;-142.21;76.81
10539;BME280;5317;49.048;8.468;2022-09-17T13:19:36;112049.66;;;-142.21;72.84
10539;BME280;5317;49.048;8.468;2022-09-17T13:22:41;112049.66;;;-142.21;70.01
10539;BME280;5317;49.048;8.468;2022-09-17T13:25:09;112049.66;;;-142.21;76.61
10539;BME280;5317;49.048;8.468;2022-09-17T13:27:38;112049.66;;;-142.21;73.11
10539;BME280;5317;49.048;8.468;2022-09-17T13:30:08;112049.66;;;-142.21;70.96